sensor_id;sensor_type;location;lat;lon;timestamp;pressure;altitude;pressure_sealevel;temperature;humidity
69187;BME280;56301;56.864;60.554;2022-10-26T00:01:28;98216.63;;;24.98;44.31
69187;BME280;56301;56.864;60.554;2022-10-26T00:03:50;98212.25;;;24.97;44.17
69187;BME280;56301;56.864;60.554;2022-10-26T00:06:14;98218.69;;;24.96;43.93
69187;BME280;56301;56.864;60.554;2022-10-26T00:08:36;98225.16;;;24.95;44.66
69187;BME280;56301;56.864;60.554;2022-10-26T00:10:59;98224.13;;;24.96;44.16
69187;BME280;56301;56.864;60.554;2022-10-26T00:13:21;98229.53;;;24.96;44.36
69187;BME280;56301;56.864;60.554;2022-10-26T00:15:44;98227.66;;;24.96;43.73
69187;BME280;56301;56.864;60.554;2022-10-26T00:18:06;98231.41;;;24.95;44.53
69187;BME280;56301;56.864;60.554;2022-10-26T00:20:28;98232.22;;;24.96;44.42
69187;BME280;56301;56.864;60.554;2022-10-26T00:22:51;98232.22;;;24.96;44.28
69187;BME280;56301;56.864;60.554;2022-10-26T00:25:13;98235.56;;;24.98;43.57
69187;BME280;56301;56.864;60.554;2022-10-26T00:27:36;98244.72;;;24.97;44.11
69187;BME280;56301;56.864;60.554;2022-10-26T00:29:58;98241.63;;;25.00;43.91
69187;BME280;56301;56.864;60.554;2022-10-26T00:32:21;98248.06;;;24.99;44.13
69187;BME280;56301;56.864;60.554;2022-10-26T00:34:43;98246.38;;;24.98;44.16
69187;BME280;56301;56.864;60.554;2022-10-26T00:37:05;98247.25;;;24.98;43.99
69187;BME280;56301;56.864;60.554;2022-10-26T00:39:28;98250.97;;;24.97;43.99
69187;BME280;56301;56.864;60.554;2022-10-26T00:41:50;98254.50;;;24.98;43.76
69187;BME280;56301;56.864;60.554;2022-10-26T00:46:54;98253.88;;;24.96;44.18
69187;BME280;56301;56.864;60.554;2022-10-26T00:49:16;98263.50;;;24.98;43.89
69187;BME280;56301;56.864;60.554;2022-10-26T00:51:45;98261.34;;;24.94;43.38
69187;BME280;56301;56.864;60.554;2022-10-26T00:54:12;98260.06;;;24.90;43.83
69187;BME280;56301;56.864;60.554;2022-10-26T00:56:34;98264.88;;;24.88;43.23
69187;BME280;56301;56.864;60.554;2022-10-26T00:58:59;98265.88;;;24.87;43.61
69187;BME280;56301;56.864;60.554;2022-10-26T01:01:23;98270.91;;;24.90;43.72
69187;BME280;56301;56.864;60.554;2022-10-26T01:03:45;98274.81;;;24.87;43.36
69187;BME280;56301;56.864;60.554;2022-10-26T01:06:08;98280.91;;;24.89;44.12
69187;BME280;56301;56.864;60.554;2022-10-26T01:08:32;98283.81;;;24.88;43.89
69187;BME280;56301;56.864;60.554;2022-10-26T01:10:56;98282.09;;;24.87;44.04
69187;BME280;56301;56.864;60.554;2022-10-26T01:13:19;98285.84;;;24.86;43.70
69187;BME280;56301;56.864;60.554;2022-10-26T01:18:26;98292.81;;;24.95;43.50
69187;BME280;56301;56.864;60.554;2022-10-26T01:28:19;98297.78;;;24.91;43.97
69187;BME280;56301;56.864;60.554;2022-10-26T01:30:45;98299.63;;;24.91;43.49
69187;BME280;56301;56.864;60.554;2022-10-26T01:35:35;98312.22;;;25.05;44.06
69187;BME280;56301;56.864;60.554;2022-10-26T01:38:03;98305.41;;;25.09;43.97
69187;BME280;56301;56.864;60.554;2022-10-26T01:40:35;98307.72;;;25.12;44.04
69187;BME280;56301;56.864;60.554;2022-10-26T01:42:59;98308.59;;;25.13;43.81
69187;BME280;56301;56.864;60.554;2022-10-26T01:45:24;98316.50;;;25.14;43.29
69187;BME280;56301;56.864;60.554;2022-10-26T01:47:47;98314.63;;;25.15;44.03
69187;BME280;56301;56.864;60.554;2022-10-26T01:50:09;98311.75;;;25.16;43.85
69187;BME280;56301;56.864;60.554;2022-10-26T01:52:32;98313.41;;;25.17;43.78
69187;BME280;56301;56.864;60.554;2022-10-26T01:55:01;98322.38;;;25.18;43.30
69187;BME280;56301;56.864;60.554;2022-10-26T01:57:24;98325.69;;;25.20;43.98
69187;BME280;56301;56.864;60.554;2022-10-26T02:00:29;98328.22;;;25.21;43.57
69187;BME280;56301;56.864;60.554;2022-10-26T02:07:51;98338.00;;;25.23;42.86
69187;BME280;56301;56.864;60.554;2022-10-26T02:15:21;98351.94;;;25.19;43.37
69187;BME280;56301;56.864;60.554;2022-10-26T02:20:07;98350.22;;;25.12;43.50
69187;BME280;56301;56.864;60.554;2022-10-26T02:24:52;98367.03;;;25.07;44.02
69187;BME280;56301;56.864;60.554;2022-10-26T02:27:17;98368.91;;;25.07;43.58
69187;BME280;56301;56.864;60.554;2022-10-26T02:29:41;98366.38;;;25.05;43.72
69187;BME280;56301;56.864;60.554;2022-10-26T02:32:04;98364.31;;;25.07;43.23
69187;BME280;56301;56.864;60.554;2022-10-26T02:34:29;98374.09;;;25.08;43.60
69187;BME280;56301;56.864;60.554;2022-10-26T02:36:52;98381.59;;;25.06;43.63
69187;BME280;56301;56.864;60.554;2022-10-26T02:39:16;98382.59;;;25.05;44.24
69187;BME280;56301;56.864;60.554;2022-10-26T02:41:40;98387.19;;;25.05;43.72
69187;BME280;56301;56.864;60.554;2022-10-26T02:46:27;98391.97;;;25.03;43.90
69187;BME280;56301;56.864;60.554;2022-10-26T02:48:50;98388.44;;;25.02;44.48
69187;BME280;56301;56.864;60.554;2022-10-26T02:56:26;98399.66;;;24.99;43.81
69187;BME280;56301;56.864;60.554;2022-10-26T02:58:51;98413.19;;;24.99;43.86
69187;BME280;56301;56.864;60.554;2022-10-26T03:01:16;98408.41;;;25.01;43.55
69187;BME280;56301;56.864;60.554;2022-10-26T03:03:38;98412.13;;;25.00;44.19
69187;BME280;56301;56.864;60.554;2022-10-26T03:06:01;98415.88;;;24.99;43.65
69187;BME280;56301;56.864;60.554;2022-10-26T03:08:23;98425.88;;;24.98;43.95
69187;BME280;56301;56.864;60.554;2022-10-26T03:10:46;98435.00;;;24.97;44.06
69187;BME280;56301;56.864;60.554;2022-10-26T03:13:09;98436.88;;;24.97;43.82
69187;BME280;56301;56.864;60.554;2022-10-26T03:15:31;98437.94;;;24.96;43.65
69187;BME280;56301;56.864;60.554;2022-10-26T03:17:54;98442.50;;;24.95;43.55
69187;BME280;56301;56.864;60.554;2022-10-26T03:20:16;98441.66;;;24.95;44.20
69187;BME280;56301;56.864;60.554;2022-10-26T03:22:39;98440.81;;;24.94;43.92
69187;BME280;56301;56.864;60.554;2022-10-26T03:25:01;98447.91;;;24.95;44.15
69187;BME280;56301;56.864;60.554;2022-10-26T03:27:24;98449.78;;;24.95;44.22
69187;BME280;56301;56.864;60.554;2022-10-26T03:29:46;98449.78;;;24.95;44.13
69187;BME280;56301;56.864;60.554;2022-10-26T03:32:09;98455.44;;;25.00;44.08
69187;BME280;56301;56.864;60.554;2022-10-26T03:34:31;98465.06;;;25.03;43.44
69187;BME280;56301;56.864;60.554;2022-10-26T03:36:54;98463.38;;;25.02;43.83
69187;BME280;56301;56.864;60.554;2022-10-26T03:39:16;98473.34;;;25.01;43.48
69187;BME280;56301;56.864;60.554;2022-10-26T03:41:39;98472.34;;;25.02;44.12
69187;BME280;56301;56.864;60.554;2022-10-26T03:44:01;98474.19;;;25.02;43.73
69187;BME280;56301;56.864;60.554;2022-10-26T03:46:24;98479.44;;;25.03;43.93
69187;BME280;56301;56.864;60.554;2022-10-26T03:48:46;98479.78;;;25.15;42.64
69187;BME280;56301;56.864;60.554;2022-10-26T03:51:08;98479.44;;;25.03;43.28
69187;BME280;56301;56.864;60.554;2022-10-26T03:53:31;98487.28;;;24.98;44.14
69187;BME280;56301;56.864;60.554;2022-10-26T03:55:53;98490.19;;;24.96;44.11
69187;BME280;56301;56.864;60.554;2022-10-26T03:58:16;98493.47;;;24.92;43.91
69187;BME280;56301;56.864;60.554;2022-10-26T04:00:38;98496.63;;;24.95;44.20
69187;BME280;56301;56.864;60.554;2022-10-26T04:03:00;98500.94;;;24.90;44.17
69187;BME280;56301;56.864;60.554;2022-10-26T04:05:23;98503.09;;;24.80;43.49
69187;BME280;56301;56.864;60.554;2022-10-26T04:07:56;98500.81;;;24.77;43.30
69187;BME280;56301;56.864;60.554;2022-10-26T04:10:18;98505.56;;;24.74;43.98
69187;BME280;56301;56.864;60.554;2022-10-26T04:12:41;98504.88;;;24.72;44.05
69187;BME280;56301;56.864;60.554;2022-10-26T04:15:03;98511.53;;;24.70;43.55
69187;BME280;56301;56.864;60.554;2022-10-26T04:17:26;98512.38;;;24.70;43.40
69187;BME280;56301;56.864;60.554;2022-10-26T04:19:49;98517.13;;;24.68;43.67
69187;BME280;56301;56.864;60.554;2022-10-26T04:22:12;98515.25;;;24.69;43.98
69187;BME280;56301;56.864;60.554;2022-10-26T04:24:34;98515.44;;;24.67;43.74
69187;BME280;56301;56.864;60.554;2022-10-26T04:26:56;98526.28;;;24.67;43.81
69187;BME280;56301;56.864;60.554;2022-10-26T04:29:19;98524.78;;;24.65;43.82
69187;BME280;56301;56.864;60.554;2022-10-26T04:31:41;98530.19;;;24.65;43.80
69187;BME280;56301;56.864;60.554;2022-10-26T04:34:03;98537.47;;;24.64;43.80
69187;BME280;56301;56.864;60.554;2022-10-26T04:36:26;98542.88;;;24.64;43.57
69187;BME280;56301;56.864;60.554;2022-10-26T04:38:48;98541.22;;;24.63;43.84
69187;BME280;56301;56.864;60.554;2022-10-26T04:41:11;98541.22;;;24.63;43.65
69187;BME280;56301;56.864;60.554;2022-10-26T04:43:33;98544.75;;;24.64;43.54
69187;BME280;56301;56.864;60.554;2022-10-26T04:45:56;98549.50;;;24.62;43.59
69187;BME280;56301;56.864;60.554;2022-10-26T04:48:18;98542.25;;;24.62;43.33
69187;BME280;56301;56.864;60.554;2022-10-26T04:50:41;98559.47;;;24.61;43.64
69187;BME280;56301;56.864;60.554;2022-10-26T04:53:04;98553.06;;;24.62;43.51
69187;BME280;56301;56.864;60.554;2022-10-26T04:55:27;98552.19;;;24.62;43.54
69187;BME280;56301;56.864;60.554;2022-10-26T04:57:49;98556.78;;;24.61;43.48
69187;BME280;56301;56.864;60.554;2022-10-26T05:00:12;98554.06;;;24.61;42.85
69187;BME280;56301;56.864;60.554;2022-10-26T05:02:34;98559.47;;;24.61;43.28
69187;BME280;56301;56.864;60.554;2022-10-26T05:04:57;98563.03;;;24.62;42.88
69187;BME280;56301;56.864;60.554;2022-10-26T05:07:19;98563.22;;;24.60;43.21
69187;BME280;56301;56.864;60.554;2022-10-26T05:09:42;98570.31;;;24.61;43.05
69187;BME280;56301;56.864;60.554;2022-10-26T05:12:04;98554.56;;;24.50;42.91
69187;BME280;56301;56.864;60.554;2022-10-26T05:14:27;98579.09;;;24.63;43.33
69187;BME280;56301;56.864;60.554;2022-10-26T05:16:49;98582.81;;;24.62;43.04
69187;BME280;56301;56.864;60.554;2022-10-26T05:19:12;98590.94;;;24.62;42.84
69187;BME280;56301;56.864;60.554;2022-10-26T05:21:35;98589.91;;;24.63;42.64
69187;BME280;56301;56.864;60.554;2022-10-26T05:23:57;98598.03;;;24.63;42.99
69187;BME280;56301;56.864;60.554;2022-10-26T05:26:20;98593.66;;;24.62;42.84
69187;BME280;56301;56.864;60.554;2022-10-26T05:28:43;98602.41;;;24.64;42.82
69187;BME280;56301;56.864;60.554;2022-10-26T05:31:05;98605.31;;;24.63;42.19
69187;BME280;56301;56.864;60.554;2022-10-26T05:33:27;98601.56;;;24.64;42.92
69187;BME280;56301;56.864;60.554;2022-10-26T05:35:52;98613.22;;;24.64;42.93
69187;BME280;56301;56.864;60.554;2022-10-26T05:38:15;98603.22;;;24.65;42.97
69187;BME280;56301;56.864;60.554;2022-10-26T05:40:38;98603.22;;;24.65;42.52
69187;BME280;56301;56.864;60.554;2022-10-26T05:43:07;98611.19;;;24.66;42.87
69187;BME280;56301;56.864;60.554;2022-10-26T05:45:29;98612.19;;;24.65;42.69
69187;BME280;56301;56.864;60.554;2022-10-26T05:47:52;98616.75;;;24.65;42.65
69187;BME280;56301;56.864;60.554;2022-10-26T05:50:14;98621.16;;;24.66;42.38
69187;BME280;56301;56.864;60.554;2022-10-26T05:52:37;98622.00;;;24.66;42.05
69187;BME280;56301;56.864;60.554;2022-10-26T05:55:00;98618.25;;;24.67;42.66
69187;BME280;56301;56.864;60.554;2022-10-26T05:57:22;98631.78;;;24.67;42.22
69187;BME280;56301;56.864;60.554;2022-10-26T05:59:45;98623.66;;;24.67;42.46
69187;BME280;56301;56.864;60.554;2022-10-26T06:04:50;98636.16;;;24.68;42.38
69187;BME280;56301;56.864;60.554;2022-10-26T06:07:13;98637.88;;;24.69;42.02
69187;BME280;56301;56.864;60.554;2022-10-26T06:09:37;98643.28;;;24.69;42.37
69187;BME280;56301;56.864;60.554;2022-10-26T06:11:59;98645.78;;;24.71;41.93
69187;BME280;56301;56.864;60.554;2022-10-26T06:14:22;98632.44;;;24.69;41.97
69187;BME280;56301;56.864;60.554;2022-10-26T06:26:51;98652.75;;;24.65;42.37
69187;BME280;56301;56.864;60.554;2022-10-26T06:31:44;98665.44;;;24.65;42.37
69187;BME280;56301;56.864;60.554;2022-10-26T06:34:08;98662.13;;;24.63;41.84
69187;BME280;56301;56.864;60.554;2022-10-26T06:36:31;98665.81;;;24.62;42.27
69187;BME280;56301;56.864;60.554;2022-10-26T06:39:06;98670.22;;;24.63;42.05
69187;BME280;56301;56.864;60.554;2022-10-26T06:41:32;98672.09;;;24.62;42.36
69187;BME280;56301;56.864;60.554;2022-10-26T06:43:55;98673.94;;;24.62;42.19
69187;BME280;56301;56.864;60.554;2022-10-26T06:51:12;98694.75;;;24.61;42.16
69187;BME280;56301;56.864;60.554;2022-10-26T06:53:38;98693.91;;;24.61;41.97
69187;BME280;56301;56.864;60.554;2022-10-26T06:56:03;98684.97;;;24.60;42.34
69187;BME280;56301;56.864;60.554;2022-10-26T06:58:32;98697.66;;;24.60;42.24
69187;BME280;56301;56.864;60.554;2022-10-26T07:00:55;98703.91;;;24.60;42.19
69187;BME280;56301;56.864;60.554;2022-10-26T07:03:18;98696.81;;;24.59;42.18
69187;BME280;56301;56.864;60.554;2022-10-26T07:05:41;98708.47;;;24.60;41.69
69187;BME280;56301;56.864;60.554;2022-10-26T07:08:03;98709.31;;;24.60;41.74
69187;BME280;56301;56.864;60.554;2022-10-26T07:10:26;98711.16;;;24.60;42.10
69187;BME280;56301;56.864;60.554;2022-10-26T07:12:48;98703.22;;;24.58;41.63
69187;BME280;56301;56.864;60.554;2022-10-26T07:15:11;98712.69;;;24.62;41.51
69187;BME280;56301;56.864;60.554;2022-10-26T07:17:43;98719.75;;;24.63;41.61
69187;BME280;56301;56.864;60.554;2022-10-26T07:20:05;98714.34;;;24.63;41.61
69187;BME280;56301;56.864;60.554;2022-10-26T07:22:28;98712.28;;;24.65;41.79
69187;BME280;56301;56.864;60.554;2022-10-26T07:24:50;98710.25;;;24.67;41.73
69187;BME280;56301;56.864;60.554;2022-10-26T07:27:13;98715.28;;;24.70;41.14
69187;BME280;56301;56.864;60.554;2022-10-26T07:29:35;98723.69;;;24.76;40.97
69187;BME280;56301;56.864;60.554;2022-10-26T07:31:58;98714.56;;;24.77;41.24
69187;BME280;56301;56.864;60.554;2022-10-26T07:34:20;98730.13;;;24.74;41.75
69187;BME280;56301;56.864;60.554;2022-10-26T07:36:42;98742.00;;;24.73;41.60
69187;BME280;56301;56.864;60.554;2022-10-26T07:39:05;98734.72;;;24.74;41.30
69187;BME280;56301;56.864;60.554;2022-10-26T07:41:28;98736.56;;;24.73;41.00
69187;BME280;56301;56.864;60.554;2022-10-26T07:43:50;98732.47;;;24.78;41.51
69187;BME280;56301;56.864;60.554;2022-10-26T07:46:13;98735.81;;;24.80;41.50
69187;BME280;56301;56.864;60.554;2022-10-26T07:48:35;98734.97;;;24.79;41.13
69187;BME280;56301;56.864;60.554;2022-10-26T07:50:59;98734.63;;;24.82;40.89
69187;BME280;56301;56.864;60.554;2022-10-26T07:53:22;98745.91;;;24.86;41.05
69187;BME280;56301;56.864;60.554;2022-10-26T07:55:51;98744.16;;;24.93;41.09
69187;BME280;56301;56.864;60.554;2022-10-26T07:58:13;98752.63;;;24.90;41.64
69187;BME280;56301;56.864;60.554;2022-10-26T08:00:36;98757.31;;;24.96;41.25
69187;BME280;56301;56.864;60.554;2022-10-26T08:02:58;98749.47;;;25.01;41.12
69187;BME280;56301;56.864;60.554;2022-10-26T08:05:20;98749.88;;;25.28;40.58
69187;BME280;56301;56.864;60.554;2022-10-26T08:07:43;98753.56;;;25.56;40.33
69187;BME280;56301;56.864;60.554;2022-10-26T08:10:06;98743.47;;;25.80;39.31
69187;BME280;56301;56.864;60.554;2022-10-26T08:12:28;98744.97;;;25.82;39.82
69187;BME280;56301;56.864;60.554;2022-10-26T08:14:51;98749.69;;;25.95;39.19
69187;BME280;56301;56.864;60.554;2022-10-26T08:17:14;98744.31;;;25.80;39.38
69187;BME280;56301;56.864;60.554;2022-10-26T08:19:36;98749.94;;;25.64;39.61
69187;BME280;56301;56.864;60.554;2022-10-26T08:21:58;98752.09;;;25.54;40.09
69187;BME280;56301;56.864;60.554;2022-10-26T08:24:21;98760.13;;;25.47;40.70
69187;BME280;56301;56.864;60.554;2022-10-26T08:26:43;98762.59;;;25.42;40.18
69187;BME280;56301;56.864;60.554;2022-10-26T08:29:06;98765.00;;;25.37;40.29
69187;BME280;56301;56.864;60.554;2022-10-26T08:31:28;98758.53;;;25.38;40.96
69187;BME280;56301;56.864;60.554;2022-10-26T08:33:51;98753.53;;;25.35;40.74
69187;BME280;56301;56.864;60.554;2022-10-26T08:36:13;98750.16;;;25.33;40.78
69187;BME280;56301;56.864;60.554;2022-10-26T08:38:36;98760.63;;;25.36;40.38
69187;BME280;56301;56.864;60.554;2022-10-26T08:41:04;98762.13;;;25.38;40.66
69187;BME280;56301;56.864;60.554;2022-10-26T08:45:59;98740.72;;;25.29;41.31
69187;BME280;56301;56.864;60.554;2022-10-26T08:48:28;98766.41;;;25.33;40.79
69187;BME280;56301;56.864;60.554;2022-10-26T08:50:53;98774.25;;;25.28;40.76
69187;BME280;56301;56.864;60.554;2022-10-26T08:53:39;98775.63;;;25.24;41.08
69187;BME280;56301;56.864;60.554;2022-10-26T08:56:00;98766.50;;;25.25;41.47
69187;BME280;56301;56.864;60.554;2022-10-26T08:58:39;98771.25;;;25.23;41.63
69187;BME280;56301;56.864;60.554;2022-10-26T09:01:02;98775.63;;;25.24;41.03
69187;BME280;56301;56.864;60.554;2022-10-26T09:03:25;98776.97;;;25.28;41.13
69187;BME280;56301;56.864;60.554;2022-10-26T09:08:15;98779.38;;;25.37;40.44
69187;BME280;56301;56.864;60.554;2022-10-26T09:11:31;98775.47;;;25.40;40.69
69187;BME280;56301;56.864;60.554;2022-10-26T09:13:37;98775.09;;;25.43;41.07
69187;BME280;56301;56.864;60.554;2022-10-26T09:16:06;98772.56;;;25.41;41.27
69187;BME280;56301;56.864;60.554;2022-10-26T09:23:44;98784.69;;;25.31;41.44
69187;BME280;56301;56.864;60.554;2022-10-26T09:26:14;98789.84;;;25.26;41.30
69187;BME280;56301;56.864;60.554;2022-10-26T09:28:38;98795.63;;;25.23;41.36
69187;BME280;56301;56.864;60.554;2022-10-26T09:31:02;98793.94;;;25.21;41.23
69187;BME280;56301;56.864;60.554;2022-10-26T09:33:25;98798.16;;;25.24;41.13
69187;BME280;56301;56.864;60.554;2022-10-26T09:36:00;98794.41;;;25.25;40.83
69187;BME280;56301;56.864;60.554;2022-10-26T09:40:55;98809.06;;;25.31;41.10
69187;BME280;56301;56.864;60.554;2022-10-26T09:43:42;98815.34;;;25.31;41.64
69187;BME280;56301;56.864;60.554;2022-10-26T09:46:02;98814.22;;;25.40;41.12
69187;BME280;56301;56.864;60.554;2022-10-26T09:48:30;98809.94;;;25.46;40.72
69187;BME280;56301;56.864;60.554;2022-10-26T09:50:54;98813.66;;;25.45;40.67
69187;BME280;56301;56.864;60.554;2022-10-26T09:53:17;98818.44;;;25.43;40.67
69187;BME280;56301;56.864;60.554;2022-10-26T09:55:44;98813.75;;;25.37;40.75
69187;BME280;56301;56.864;60.554;2022-10-26T09:58:11;98822.44;;;25.32;41.36
69187;BME280;56301;56.864;60.554;2022-10-26T10:00:34;98829.06;;;25.30;41.24
69187;BME280;56301;56.864;60.554;2022-10-26T10:02:58;98833.19;;;25.26;41.46
69187;BME280;56301;56.864;60.554;2022-10-26T10:05:25;98839.63;;;25.25;41.22
69187;BME280;56301;56.864;60.554;2022-10-26T10:07:48;98840.16;;;25.20;41.85
69187;BME280;56301;56.864;60.554;2022-10-26T10:10:17;98849.31;;;25.19;41.21
69187;BME280;56301;56.864;60.554;2022-10-26T10:12:40;98845.56;;;25.20;41.93
69187;BME280;56301;56.864;60.554;2022-10-26T10:15:02;98848.47;;;25.18;41.33
69187;BME280;56301;56.864;60.554;2022-10-26T10:17:25;98845.78;;;25.18;41.49
69187;BME280;56301;56.864;60.554;2022-10-26T10:19:47;98849.31;;;25.19;41.42
69187;BME280;56301;56.864;60.554;2022-10-26T10:22:11;98848.47;;;25.18;41.38
69187;BME280;56301;56.864;60.554;2022-10-26T10:24:35;98858.66;;;25.16;41.72
69187;BME280;56301;56.864;60.554;2022-10-26T10:29:27;98864.38;;;25.21;41.67
69187;BME280;56301;56.864;60.554;2022-10-26T10:31:54;98865.19;;;25.22;42.17
69187;BME280;56301;56.864;60.554;2022-10-26T10:34:19;98868.75;;;25.23;42.33
69187;BME280;56301;56.864;60.554;2022-10-26T10:36:43;98873.13;;;25.24;42.63
69187;BME280;56301;56.864;60.554;2022-10-26T10:39:05;98871.44;;;25.23;42.37
69187;BME280;56301;56.864;60.554;2022-10-26T10:41:44;98878.94;;;25.20;42.39
69187;BME280;56301;56.864;60.554;2022-10-26T10:44:12;98884.34;;;25.20;42.19
69187;BME280;56301;56.864;60.554;2022-10-26T10:46:38;98884.16;;;25.22;42.27
69187;BME280;56301;56.864;60.554;2022-10-26T10:49:02;98889.47;;;25.15;42.18
69187;BME280;56301;56.864;60.554;2022-10-26T10:51:25;98891.69;;;25.12;42.33
69187;BME280;56301;56.864;60.554;2022-10-26T10:53:51;98890.19;;;25.09;42.24
69187;BME280;56301;56.864;60.554;2022-10-26T11:01:07;98909.50;;;25.06;42.27
69187;BME280;56301;56.864;60.554;2022-10-26T11:03:39;98912.00;;;25.08;42.14
69187;BME280;56301;56.864;60.554;2022-10-26T11:08:28;98915.38;;;25.10;42.52
69187;BME280;56301;56.864;60.554;2022-10-26T11:13:55;98922.97;;;25.14;42.73
69187;BME280;56301;56.864;60.554;2022-10-26T11:19:12;98934.84;;;25.05;42.22
69187;BME280;56301;56.864;60.554;2022-10-26T11:21:37;98941.66;;;25.01;43.04
69187;BME280;56301;56.864;60.554;2022-10-26T11:24:11;98945.03;;;25.03;42.83
69187;BME280;56301;56.864;60.554;2022-10-26T11:26:48;98958.25;;;24.98;42.86
69187;BME280;56301;56.864;60.554;2022-10-26T11:29:18;98952.69;;;25.00;42.40
69187;BME280;56301;56.864;60.554;2022-10-26T11:31:44;98951.84;;;24.99;42.54
69187;BME280;56301;56.864;60.554;2022-10-26T11:34:13;98960.13;;;24.97;42.83
69187;BME280;56301;56.864;60.554;2022-10-26T11:36:39;98962.00;;;24.97;42.13
69187;BME280;56301;56.864;60.554;2022-10-26T11:39:19;98961.34;;;24.95;41.99
69187;BME280;56301;56.864;60.554;2022-10-26T11:41:48;98964.91;;;24.95;43.25
69187;BME280;56301;56.864;60.554;2022-10-26T11:46:54;98978.78;;;24.92;42.82
69187;BME280;56301;56.864;60.554;2022-10-26T11:49:28;98980.66;;;24.92;42.20
69187;BME280;56301;56.864;60.554;2022-10-26T11:51:58;98976.25;;;24.91;42.60
69187;BME280;56301;56.864;60.554;2022-10-26T11:54:33;98979.16;;;24.89;42.21
69187;BME280;56301;56.864;60.554;2022-10-26T11:56:57;98989.97;;;24.89;42.76
69187;BME280;56301;56.864;60.554;2022-10-26T11:59:25;98991.00;;;24.88;42.35
69187;BME280;56301;56.864;60.554;2022-10-26T12:01:50;98997.41;;;24.87;43.06
69187;BME280;56301;56.864;60.554;2022-10-26T12:04:15;98999.28;;;24.87;42.49
69187;BME280;56301;56.864;60.554;2022-10-26T12:06:37;98991.34;;;24.85;42.80
69187;BME280;56301;56.864;60.554;2022-10-26T12:09:15;98998.63;;;24.85;42.60
69187;BME280;56301;56.864;60.554;2022-10-26T12:19:24;99016.25;;;24.81;42.43
69187;BME280;56301;56.864;60.554;2022-10-26T12:21:49;99014.38;;;24.81;42.61
69187;BME280;56301;56.864;60.554;2022-10-26T12:24:32;99018.97;;;24.81;42.77
69187;BME280;56301;56.864;60.554;2022-10-26T12:26:57;99018.13;;;24.80;42.73
69187;BME280;56301;56.864;60.554;2022-10-26T12:29:31;99014.75;;;24.78;42.73
69187;BME280;56301;56.864;60.554;2022-10-26T12:31:53;99022.03;;;24.78;42.84
69187;BME280;56301;56.864;60.554;2022-10-26T12:42:40;99031.16;;;24.77;42.39
69187;BME280;56301;56.864;60.554;2022-10-26T12:47:07;99028.63;;;24.75;42.13
69187;BME280;56301;56.864;60.554;2022-10-26T12:52:20;99042.16;;;24.75;42.56
69187;BME280;56301;56.864;60.554;2022-10-26T12:54:50;99057.53;;;24.74;41.95
69187;BME280;56301;56.864;60.554;2022-10-26T13:08:01;99073.28;;;24.71;42.05
69187;BME280;56301;56.864;60.554;2022-10-26T13:10:39;99072.25;;;24.72;42.13
69187;BME280;56301;56.864;60.554;2022-10-26T13:15:04;99072.59;;;24.77;42.08
69187;BME280;56301;56.864;60.554;2022-10-26T13:17:36;99091.53;;;24.77;41.91
69187;BME280;56301;56.864;60.554;2022-10-26T13:20:03;99089.69;;;24.78;41.89
69187;BME280;56301;56.864;60.554;2022-10-26T13:22:26;98986.50;;;24.72;42.27
69187;BME280;56301;56.864;60.554;2022-10-26T13:24:52;99102.38;;;24.69;42.04
69187;BME280;56301;56.864;60.554;2022-10-26T13:32:19;99097.47;;;24.72;41.20
69187;BME280;56301;56.864;60.554;2022-10-26T13:34:41;99103.84;;;24.88;41.56
69187;BME280;56301;56.864;60.554;2022-10-26T13:37:21;99115.66;;;24.95;40.82
69187;BME280;56301;56.864;60.554;2022-10-26T13:39:45;99114.28;;;24.91;41.11
69187;BME280;56301;56.864;60.554;2022-10-26T13:42:12;99123.78;;;24.87;42.17
69187;BME280;56301;56.864;60.554;2022-10-26T13:44:43;99127.53;;;24.86;41.93
69187;BME280;56301;56.864;60.554;2022-10-26T13:47:16;99129.38;;;24.85;42.12
69187;BME280;56301;56.864;60.554;2022-10-26T13:49:44;99130.41;;;24.84;42.42
69187;BME280;56301;56.864;60.554;2022-10-26T13:52:14;99135.81;;;24.84;42.40
69187;BME280;56301;56.864;60.554;2022-10-26T13:54:41;99132.09;;;24.85;42.43
69187;BME280;56301;56.864;60.554;2022-10-26T13:59:37;99145.63;;;24.85;41.87
69187;BME280;56301;56.864;60.554;2022-10-26T14:02:14;99147.66;;;24.83;41.77
69187;BME280;56301;56.864;60.554;2022-10-26T14:04:36;99149.31;;;24.92;42.30
69187;BME280;56301;56.864;60.554;2022-10-26T14:06:59;99147.16;;;24.88;41.57
69187;BME280;56301;56.864;60.554;2022-10-26T14:09:21;99147.16;;;24.88;42.44
69187;BME280;56301;56.864;60.554;2022-10-26T14:14:36;99149.13;;;24.94;42.56
69187;BME280;56301;56.864;60.554;2022-10-26T14:16:59;99163.16;;;24.97;42.76
69187;BME280;56301;56.864;60.554;2022-10-26T14:19:29;99157.59;;;24.99;42.04
69187;BME280;56301;56.864;60.554;2022-10-26T14:21:52;99163.00;;;24.99;42.55
69187;BME280;56301;56.864;60.554;2022-10-26T14:24:21;99168.41;;;24.99;42.67
69187;BME280;56301;56.864;60.554;2022-10-26T14:26:44;99169.06;;;25.01;42.86
69187;BME280;56301;56.864;60.554;2022-10-26T14:29:13;99172.81;;;25.00;42.90
69187;BME280;56301;56.864;60.554;2022-10-26T14:31:36;99172.81;;;25.00;42.29
69187;BME280;56301;56.864;60.554;2022-10-26T14:33:59;99172.50;;;24.95;42.53
69187;BME280;56301;56.864;60.554;2022-10-26T14:36:32;99174.72;;;24.91;42.90
69187;BME280;56301;56.864;60.554;2022-10-26T14:38:58;99187.38;;;24.91;42.24
69187;BME280;56301;56.864;60.554;2022-10-26T14:41:22;99185.69;;;24.90;42.46
69187;BME280;56301;56.864;60.554;2022-10-26T14:43:45;99186.72;;;24.89;42.26
69187;BME280;56301;56.864;60.554;2022-10-26T14:46:11;99190.25;;;24.89;42.20
69187;BME280;56301;56.864;60.554;2022-10-26T14:48:35;99185.69;;;24.90;41.93
69187;BME280;56301;56.864;60.554;2022-10-26T14:50:58;99190.94;;;24.91;42.75